sensor_id;sensor_type;location;lat;lon;timestamp;pressure;altitude;pressure_sealevel;temperature;humidity
20656;BME280;10487;53.320;8.672;2023-04-09T00:01:48;102515.06;;;5.59;51.48
20656;BME280;10487;53.320;8.672;2023-04-09T00:04:49;102504.50;;;5.57;51.50
20656;BME280;10487;53.320;8.672;2023-04-09T00:07:51;102511.53;;;5.58;51.63
20656;BME280;10487;53.320;8.672;2023-04-09T00:10:53;102511.63;;;5.55;51.70
20656;BME280;10487;53.320;8.672;2023-04-09T00:13:57;102508.03;;;5.58;51.68
20656;BME280;10487;53.320;8.672;2023-04-09T00:16:58;102508.94;;;5.57;51.70
20656;BME280;10487;53.320;8.672;2023-04-09T00:20:00;102505.44;;;5.56;51.80
20656;BME280;10487;53.320;8.672;2023-04-09T00:23:01;102505.44;;;5.56;51.64
20656;BME280;10487;53.320;8.672;2023-04-09T00:26:03;102506.38;;;5.54;51.80
20656;BME280;10487;53.320;8.672;2023-04-09T00:29:05;102501.97;;;5.53;51.70
20656;BME280;10487;53.320;8.672;2023-04-09T00:32:06;102498.50;;;5.51;51.76
20656;BME280;10487;53.320;8.672;2023-04-09T00:35:08;102494.09;;;5.50;51.86
20656;BME280;10487;53.320;8.672;2023-04-09T00:38:10;102495.91;;;5.49;51.77
20656;BME280;10487;53.320;8.672;2023-04-09T00:41:12;102494.09;;;5.50;51.92
20656;BME280;10487;53.320;8.672;2023-04-09T00:44:13;102497.59;;;5.52;51.50
20656;BME280;10487;53.320;8.672;2023-04-09T00:47:16;102494.00;;;5.54;51.98
20656;BME280;10487;53.320;8.672;2023-04-09T00:50:18;102490.47;;;5.54;51.80
20656;BME280;10487;53.320;8.672;2023-04-09T00:53:19;102486.00;;;5.56;52.19
20656;BME280;10487;53.320;8.672;2023-04-09T00:56:22;102492.97;;;5.60;51.99
20656;BME280;10487;53.320;8.672;2023-04-09T00:59:24;102490.31;;;5.60;51.87
20656;BME280;10487;53.320;8.672;2023-04-09T01:02:27;102490.31;;;5.60;51.94
20656;BME280;10487;53.320;8.672;2023-04-09T01:06:04;102482.38;;;5.60;51.91
20656;BME280;10487;53.320;8.672;2023-04-09T01:09:15;102482.38;;;5.60;51.90
20656;BME280;10487;53.320;8.672;2023-04-09T01:12:25;102481.53;;;5.58;52.04
20656;BME280;10487;53.320;8.672;2023-04-09T01:15:35;102477.25;;;5.54;52.06
20656;BME280;10487;53.320;8.672;2023-04-09T01:18:43;102483.44;;;5.53;52.02
20656;BME280;10487;53.320;8.672;2023-04-09T01:21:50;102487.84;;;5.52;52.12
20656;BME280;10487;53.320;8.672;2023-04-09T01:25:08;102490.50;;;5.52;52.03
20656;BME280;10487;53.320;8.672;2023-04-09T01:28:18;102492.31;;;5.52;51.87
20656;BME280;10487;53.320;8.672;2023-04-09T01:31:28;102486.13;;;5.51;52.17
20656;BME280;10487;53.320;8.672;2023-04-09T01:34:32;102479.09;;;5.50;52.25
20656;BME280;10487;53.320;8.672;2023-04-09T01:37:35;102479.09;;;5.50;52.11
20656;BME280;10487;53.320;8.672;2023-04-09T01:40:37;102479.16;;;5.47;52.09
20656;BME280;10487;53.320;8.672;2023-04-09T01:43:40;102475.75;;;5.44;52.23
20656;BME280;10487;53.320;8.672;2023-04-09T01:46:42;102473.97;;;5.43;52.21
20656;BME280;10487;53.320;8.672;2023-04-09T01:49:47;102479.31;;;5.41;52.22
20656;BME280;10487;53.320;8.672;2023-04-09T01:52:48;102482.00;;;5.39;52.33
20656;BME280;10487;53.320;8.672;2023-04-09T01:55:50;102482.03;;;5.38;52.31
20656;BME280;10487;53.320;8.672;2023-04-09T01:58:52;102478.53;;;5.37;52.30
20656;BME280;10487;53.320;8.672;2023-04-09T02:01:59;102475.94;;;5.36;52.14
20656;BME280;10487;53.320;8.672;2023-04-09T02:05:05;102481.22;;;5.36;52.25
20656;BME280;10487;53.320;8.672;2023-04-09T02:08:09;102482.13;;;5.35;52.31
20656;BME280;10487;53.320;8.672;2023-04-09T02:11:14;102478.59;;;5.34;52.56
20656;BME280;10487;53.320;8.672;2023-04-09T02:14:17;102471.53;;;5.35;52.53
20656;BME280;10487;53.320;8.672;2023-04-09T02:17:19;102473.28;;;5.34;52.37
20656;BME280;10487;53.320;8.672;2023-04-09T02:20:21;102470.63;;;5.36;52.37
20656;BME280;10487;53.320;8.672;2023-04-09T02:23:23;102474.97;;;5.38;52.41
20656;BME280;10487;53.320;8.672;2023-04-09T02:26:25;102470.56;;;5.39;52.35
20656;BME280;10487;53.320;8.672;2023-04-09T02:29:27;102481.97;;;5.41;52.39
20656;BME280;10487;53.320;8.672;2023-04-09T02:32:28;102473.97;;;5.43;52.49
20656;BME280;10487;53.320;8.672;2023-04-09T02:35:30;102473.97;;;5.43;52.37
20656;BME280;10487;53.320;8.672;2023-04-09T02:38:31;102470.47;;;5.42;52.47
20656;BME280;10487;53.320;8.672;2023-04-09T02:41:33;102465.22;;;5.40;52.50
20656;BME280;10487;53.320;8.672;2023-04-09T02:44:35;102463.47;;;5.39;52.71
20656;BME280;10487;53.320;8.672;2023-04-09T02:47:36;102463.50;;;5.38;52.44
20656;BME280;10487;53.320;8.672;2023-04-09T02:50:38;102460.91;;;5.36;52.48
20656;BME280;10487;53.320;8.672;2023-04-09T02:53:39;102460.91;;;5.36;52.62
20656;BME280;10487;53.320;8.672;2023-04-09T02:56:41;102460.00;;;5.37;52.62
20656;BME280;10487;53.320;8.672;2023-04-09T02:59:44;102456.47;;;5.37;52.46
20656;BME280;10487;53.320;8.672;2023-04-09T03:02:45;102456.50;;;5.35;52.83
20656;BME280;10487;53.320;8.672;2023-04-09T03:05:47;102445.94;;;5.35;52.65
20656;BME280;10487;53.320;8.672;2023-04-09T03:08:49;102451.22;;;5.35;52.68
20656;BME280;10487;53.320;8.672;2023-04-09T03:11:51;102449.44;;;5.36;52.71
20656;BME280;10487;53.320;8.672;2023-04-09T03:14:52;102447.69;;;5.36;52.55
20656;BME280;10487;53.320;8.672;2023-04-09T03:17:54;102446.72;;;5.39;52.97
20656;BME280;10487;53.320;8.672;2023-04-09T03:20:56;102445.78;;;5.42;52.68
20656;BME280;10487;53.320;8.672;2023-04-09T03:23:57;102441.34;;;5.42;52.65
20656;BME280;10487;53.320;8.672;2023-04-09T03:26:59;102441.31;;;5.44;52.73
20656;BME280;10487;53.320;8.672;2023-04-09T03:30:00;102439.56;;;5.43;52.67
20656;BME280;10487;53.320;8.672;2023-04-09T03:33:03;102434.28;;;5.43;52.61
20656;BME280;10487;53.320;8.672;2023-04-09T03:36:05;102435.22;;;5.40;52.68
20656;BME280;10487;53.320;8.672;2023-04-09T03:39:06;102437.88;;;5.40;52.86
20656;BME280;10487;53.320;8.672;2023-04-09T03:42:08;102434.34;;;5.39;52.78
20656;BME280;10487;53.320;8.672;2023-04-09T03:45:10;102434.38;;;5.38;52.76
20656;BME280;10487;53.320;8.672;2023-04-09T03:48:11;102431.69;;;5.39;52.74
20656;BME280;10487;53.320;8.672;2023-04-09T03:51:16;102424.63;;;5.40;52.77
20656;BME280;10487;53.320;8.672;2023-04-09T03:54:18;102434.34;;;5.39;52.91
20656;BME280;10487;53.320;8.672;2023-04-09T03:57:20;102422.91;;;5.39;52.92
20656;BME280;10487;53.320;8.672;2023-04-09T04:00:21;102426.41;;;5.39;52.94
20656;BME280;10487;53.320;8.672;2023-04-09T04:03:23;102427.31;;;5.38;52.78
20656;BME280;10487;53.320;8.672;2023-04-09T04:06:25;102433.50;;;5.39;52.92
20656;BME280;10487;53.320;8.672;2023-04-09T04:09:27;102429.09;;;5.38;52.95
20656;BME280;10487;53.320;8.672;2023-04-09T04:12:30;102431.75;;;5.38;52.94
20656;BME280;10487;53.320;8.672;2023-04-09T04:15:31;102424.81;;;5.34;52.80
20656;BME280;10487;53.320;8.672;2023-04-09T04:18:34;102432.75;;;5.32;53.00
20656;BME280;10487;53.320;8.672;2023-04-09T04:21:35;102432.00;;;5.27;53.04
20656;BME280;10487;53.320;8.672;2023-04-09T04:24:37;102434.75;;;5.24;52.95
20656;BME280;10487;53.320;8.672;2023-04-09T04:27:42;102426.81;;;5.24;53.06
20656;BME280;10487;53.320;8.672;2023-04-09T04:30:43;102428.66;;;5.21;53.03
20656;BME280;10487;53.320;8.672;2023-04-09T04:33:45;102433.06;;;5.20;52.99
20656;BME280;10487;53.320;8.672;2023-04-09T04:36:47;102437.50;;;5.20;53.11
20656;BME280;10487;53.320;8.672;2023-04-09T04:39:48;102440.19;;;5.18;53.04
20656;BME280;10487;53.320;8.672;2023-04-09T04:42:50;102435.78;;;5.19;53.09
20656;BME280;10487;53.320;8.672;2023-04-09T04:45:51;102441.97;;;5.18;53.08
20656;BME280;10487;53.320;8.672;2023-04-09T04:48:54;102441.09;;;5.17;53.13
20656;BME280;10487;53.320;8.672;2023-04-09T04:51:55;102442.00;;;5.16;53.08
20656;BME280;10487;53.320;8.672;2023-04-09T04:54:57;102434.94;;;5.17;53.31
20656;BME280;10487;53.320;8.672;2023-04-09T04:57:59;102445.53;;;5.17;53.22
20656;BME280;10487;53.320;8.672;2023-04-09T05:01:00;102439.38;;;5.16;53.06
20656;BME280;10487;53.320;8.672;2023-04-09T05:04:02;102442.91;;;5.15;53.13
20656;BME280;10487;53.320;8.672;2023-04-09T05:07:04;102443.84;;;5.13;53.23
20656;BME280;10487;53.320;8.672;2023-04-09T05:10:07;102450.91;;;5.12;53.18
20656;BME280;10487;53.320;8.672;2023-04-09T05:13:08;102450.97;;;5.09;53.29
20656;BME280;10487;53.320;8.672;2023-04-09T05:16:17;102455.38;;;5.09;53.24
20656;BME280;10487;53.320;8.672;2023-04-09T05:19:19;102450.97;;;5.09;53.22
20656;BME280;10487;53.320;8.672;2023-04-09T05:22:22;102459.75;;;5.10;53.19
20656;BME280;10487;53.320;8.672;2023-04-09T05:25:24;102452.69;;;5.10;53.37
20656;BME280;10487;53.320;8.672;2023-04-09T05:28:25;102459.75;;;5.11;53.20
20656;BME280;10487;53.320;8.672;2023-04-09T05:31:27;102464.13;;;5.14;53.41
20656;BME280;10487;53.320;8.672;2023-04-09T05:34:28;102463.13;;;5.19;53.31
20656;BME280;10487;53.320;8.672;2023-04-09T05:37:30;102468.31;;;5.22;53.29
20656;BME280;10487;53.320;8.672;2023-04-09T05:40:32;102461.09;;;5.29;53.14
20656;BME280;10487;53.320;8.672;2023-04-09T05:43:33;102463.69;;;5.32;53.26
20656;BME280;10487;53.320;8.672;2023-04-09T05:46:35;102461.06;;;5.30;53.40
20656;BME280;10487;53.320;8.672;2023-04-09T05:49:37;102455.75;;;5.30;53.24
20656;BME280;10487;53.320;8.672;2023-04-09T05:52:38;102459.22;;;5.32;53.35
20656;BME280;10487;53.320;8.672;2023-04-09T05:55:40;102458.28;;;5.36;53.31
20656;BME280;10487;53.320;8.672;2023-04-09T05:58:42;102472.34;;;5.38;53.27
20656;BME280;10487;53.320;8.672;2023-04-09T06:01:43;102461.69;;;5.40;53.22
20656;BME280;10487;53.320;8.672;2023-04-09T06:04:45;102454.63;;;5.40;53.25
20656;BME280;10487;53.320;8.672;2023-04-09T06:07:47;102461.63;;;5.43;53.25
20656;BME280;10487;53.320;8.672;2023-04-09T06:10:48;102462.50;;;5.44;53.13
20656;BME280;10487;53.320;8.672;2023-04-09T06:13:50;102458.06;;;5.44;53.31
20656;BME280;10487;53.320;8.672;2023-04-09T06:16:52;102457.97;;;5.47;53.22
20656;BME280;10487;53.320;8.672;2023-04-09T06:19:54;102455.25;;;5.50;53.19
20656;BME280;10487;53.320;8.672;2023-04-09T06:22:55;102456.06;;;5.52;53.19
20656;BME280;10487;53.320;8.672;2023-04-09T06:25:57;102453.41;;;5.54;53.08
20656;BME280;10487;53.320;8.672;2023-04-09T06:28:59;102456.00;;;5.57;53.25
20656;BME280;10487;53.320;8.672;2023-04-09T06:32:00;102455.88;;;5.61;53.22
20656;BME280;10487;53.320;8.672;2023-04-09T06:35:02;102463.69;;;5.66;53.03
20656;BME280;10487;53.320;8.672;2023-04-09T06:38:04;102474.16;;;5.70;53.01
20656;BME280;10487;53.320;8.672;2023-04-09T06:41:07;102475.72;;;5.77;53.16
20656;BME280;10487;53.320;8.672;2023-04-09T06:44:09;102470.34;;;5.80;53.13
20656;BME280;10487;53.320;8.672;2023-04-09T06:47:11;102468.56;;;5.81;53.10
20656;BME280;10487;53.320;8.672;2023-04-09T06:50:12;102473.00;;;5.80;52.81
20656;BME280;10487;53.320;8.672;2023-04-09T06:53:14;102473.00;;;5.80;53.06
20656;BME280;10487;53.320;8.672;2023-04-09T06:56:16;102480.06;;;5.81;53.07
20656;BME280;10487;53.320;8.672;2023-04-09T06:59:18;102480.91;;;5.82;53.00
20656;BME280;10487;53.320;8.672;2023-04-09T07:02:20;102472.84;;;5.86;52.95
20656;BME280;10487;53.320;8.672;2023-04-09T07:05:21;102479.72;;;5.93;52.96
20656;BME280;10487;53.320;8.672;2023-04-09T07:08:23;102496.31;;;6.00;52.92
20656;BME280;10487;53.320;8.672;2023-04-09T07:11:25;102490.94;;;6.03;52.85
20656;BME280;10487;53.320;8.672;2023-04-09T07:14:27;102495.28;;;6.05;52.90
20656;BME280;10487;53.320;8.672;2023-04-09T07:17:33;102493.44;;;6.07;52.80
20656;BME280;10487;53.320;8.672;2023-04-09T07:20:34;102491.63;;;6.10;52.90
20656;BME280;10487;53.320;8.672;2023-04-09T07:23:36;102489.69;;;6.16;52.89
20656;BME280;10487;53.320;8.672;2023-04-09T07:26:38;102495.72;;;6.21;52.95
20656;BME280;10487;53.320;8.672;2023-04-09T07:29:43;102495.69;;;6.23;52.80
20656;BME280;10487;53.320;8.672;2023-04-09T07:32:45;102491.25;;;6.23;52.71
20656;BME280;10487;53.320;8.672;2023-04-09T07:35:46;102488.59;;;6.23;52.87
20656;BME280;10487;53.320;8.672;2023-04-09T07:38:48;102495.53;;;6.27;52.79
20656;BME280;10487;53.320;8.672;2023-04-09T07:41:49;102495.53;;;6.29;52.79
20656;BME280;10487;53.320;8.672;2023-04-09T07:44:51;102498.13;;;6.30;52.62
20656;BME280;10487;53.320;8.672;2023-04-09T07:47:54;102501.53;;;6.34;52.85
20656;BME280;10487;53.320;8.672;2023-04-09T07:50:55;102502.31;;;6.37;52.67
20656;BME280;10487;53.320;8.672;2023-04-09T07:53:57;102491.63;;;6.40;52.68
20656;BME280;10487;53.320;8.672;2023-04-09T07:56:59;102491.56;;;6.43;52.71
20656;BME280;10487;53.320;8.672;2023-04-09T08:00:02;102500.31;;;6.45;52.77
20656;BME280;10487;53.320;8.672;2023-04-09T08:03:04;102492.31;;;6.47;52.72
20656;BME280;10487;53.320;8.672;2023-04-09T08:06:06;102494.81;;;6.51;52.70
20656;BME280;10487;53.320;8.672;2023-04-09T08:09:07;102491.19;;;6.55;52.71
20656;BME280;10487;53.320;8.672;2023-04-09T08:12:09;102491.78;;;6.65;52.90
20656;BME280;10487;53.320;8.672;2023-04-09T08:15:11;102499.16;;;6.85;52.70
20656;BME280;10487;53.320;8.672;2023-04-09T08:18:13;102496.22;;;6.94;52.81
20656;BME280;10487;53.320;8.672;2023-04-09T08:21:14;102495.97;;;7.01;52.67
20656;BME280;10487;53.320;8.672;2023-04-09T08:24:16;102500.34;;;7.04;52.70
20656;BME280;10487;53.320;8.672;2023-04-09T08:27:18;102498.63;;;7.01;52.52
20656;BME280;10487;53.320;8.672;2023-04-09T08:30:20;102499.53;;;7.02;52.57
20656;BME280;10487;53.320;8.672;2023-04-09T08:33:22;102499.38;;;7.06;52.63
20656;BME280;10487;53.320;8.672;2023-04-09T08:36:24;102503.47;;;7.16;52.49
20656;BME280;10487;53.320;8.672;2023-04-09T08:39:26;102500.63;;;7.22;52.55
20656;BME280;10487;53.320;8.672;2023-04-09T08:42:29;102504.19;;;7.21;52.55
20656;BME280;10487;53.320;8.672;2023-04-09T08:45:32;102500.81;;;7.16;52.48
20656;BME280;10487;53.320;8.672;2023-04-09T08:48:33;102501.84;;;7.12;52.53
20656;BME280;10487;53.320;8.672;2023-04-09T08:51:35;102500.97;;;7.12;52.66
20656;BME280;10487;53.320;8.672;2023-04-09T08:54:37;102496.47;;;7.14;52.57
20656;BME280;10487;53.320;8.672;2023-04-09T08:57:39;102499.75;;;7.22;52.53
20656;BME280;10487;53.320;8.672;2023-04-09T09:00:41;102496.84;;;7.29;52.44
20656;BME280;10487;53.320;8.672;2023-04-09T09:03:57;102484.75;;;7.47;52.48
20656;BME280;10487;53.320;8.672;2023-04-09T09:07:05;102495.69;;;7.64;52.42
20656;BME280;10487;53.320;8.672;2023-04-09T09:10:07;102494.44;;;7.74;52.31
20656;BME280;10487;53.320;8.672;2023-04-09T09:13:27;102498.38;;;7.89;52.28
20656;BME280;10487;53.320;8.672;2023-04-09T09:16:28;102502.59;;;7.94;52.12
20656;BME280;10487;53.320;8.672;2023-04-09T09:19:32;102493.75;;;7.94;52.22
20656;BME280;10487;53.320;8.672;2023-04-09T09:22:48;102488.34;;;7.97;52.24
20656;BME280;10487;53.320;8.672;2023-04-09T09:25:55;102491.63;;;8.04;52.07
20656;BME280;10487;53.320;8.672;2023-04-09T09:28:59;102486.00;;;8.13;52.15
20656;BME280;10487;53.320;8.672;2023-04-09T09:32:12;102487.59;;;8.18;52.15
20656;BME280;10487;53.320;8.672;2023-04-09T09:35:14;102492.69;;;8.24;51.99
20656;BME280;10487;53.320;8.672;2023-04-09T09:38:16;102488.78;;;8.34;51.96
20656;BME280;10487;53.320;8.672;2023-04-09T09:41:18;102482.06;;;8.47;52.08
20656;BME280;10487;53.320;8.672;2023-04-09T09:44:31;102477.78;;;8.67;51.97
20656;BME280;10487;53.320;8.672;2023-04-09T09:47:33;102475.16;;;8.88;51.92
20656;BME280;10487;53.320;8.672;2023-04-09T09:50:37;102480.44;;;9.11;51.74
20656;BME280;10487;53.320;8.672;2023-04-09T09:53:42;102477.81;;;9.32;51.62
20656;BME280;10487;53.320;8.672;2023-04-09T09:56:44;102472.50;;;9.53;51.58
20656;BME280;10487;53.320;8.672;2023-04-09T09:59:52;102470.66;;;9.75;51.34
20656;BME280;10487;53.320;8.672;2023-04-09T10:03:06;102462.31;;;9.83;51.23
20656;BME280;10487;53.320;8.672;2023-04-09T10:06:13;102460.22;;;9.89;51.25
20656;BME280;10487;53.320;8.672;2023-04-09T10:09:14;102458.03;;;9.99;51.17
20656;BME280;10487;53.320;8.672;2023-04-09T10:12:18;102460.66;;;10.19;51.18
20656;BME280;10487;53.320;8.672;2023-04-09T10:15:22;102452.06;;;10.33;51.12
20656;BME280;10487;53.320;8.672;2023-04-09T10:18:24;102449.72;;;10.45;51.07
20656;BME280;10487;53.320;8.672;2023-04-09T10:21:42;102454.63;;;10.54;50.91
20656;BME280;10487;53.320;8.672;2023-04-09T10:24:45;102447.94;;;10.44;50.93
20656;BME280;10487;53.320;8.672;2023-04-09T10:28:00;102447.22;;;10.41;50.89
20656;BME280;10487;53.320;8.672;2023-04-09T10:31:06;102449.72;;;10.45;51.00
20656;BME280;10487;53.320;8.672;2023-04-09T10:34:09;102437.47;;;10.60;51.12
20656;BME280;10487;53.320;8.672;2023-04-09T10:37:16;102442.53;;;10.83;51.08
20656;BME280;10487;53.320;8.672;2023-04-09T10:40:20;102440.75;;;11.02;50.78
20656;BME280;10487;53.320;8.672;2023-04-09T10:43:22;102442.31;;;11.06;50.66
20656;BME280;10487;53.320;8.672;2023-04-09T10:46:29;102443.88;;;11.10;50.63
20656;BME280;10487;53.320;8.672;2023-04-09T10:49:36;102441.19;;;11.10;50.58
20656;BME280;10487;53.320;8.672;2023-04-09T10:52:39;102443.03;;;11.10;50.68
20656;BME280;10487;53.320;8.672;2023-04-09T10:55:47;102440.25;;;10.94;50.59
20656;BME280;10487;53.320;8.672;2023-04-09T10:58:50;102432.88;;;10.81;50.42
20656;BME280;10487;53.320;8.672;2023-04-09T11:01:52;102430.44;;;10.76;50.79
20656;BME280;10487;53.320;8.672;2023-04-09T11:08:20;102426.06;;;10.75;50.58
20656;BME280;10487;53.320;8.672;2023-04-09T11:11:26;102416.84;;;10.81;50.58
20656;BME280;10487;53.320;8.672;2023-04-09T11:14:28;102416.47;;;10.88;50.52
20656;BME280;10487;53.320;8.672;2023-04-09T11:17:35;102399.31;;;10.94;50.40
20656;BME280;10487;53.320;8.672;2023-04-09T11:20:37;102401.44;;;11.04;50.44
20656;BME280;10487;53.320;8.672;2023-04-09T11:23:38;102409.00;;;11.13;50.34
20656;BME280;10487;53.320;8.672;2023-04-09T11:26:40;102402.50;;;11.19;50.37
20656;BME280;10487;53.320;8.672;2023-04-09T11:29:42;102396.91;;;11.24;50.46
20656;BME280;10487;53.320;8.672;2023-04-09T11:32:44;102403.59;;;11.32;50.11
20656;BME280;10487;53.320;8.672;2023-04-09T11:35:46;102398.03;;;11.37;50.17
20656;BME280;10487;53.320;8.672;2023-04-09T11:38:48;102406.03;;;11.37;50.02
20656;BME280;10487;53.320;8.672;2023-04-09T11:41:52;102399.09;;;11.33;50.22
20656;BME280;10487;53.320;8.672;2023-04-09T11:44:53;102386.69;;;11.32;50.02
20656;BME280;10487;53.320;8.672;2023-04-09T11:47:55;102386.31;;;11.39;49.91
20656;BME280;10487;53.320;8.672;2023-04-09T11:50:58;102379.69;;;11.46;50.06
20656;BME280;10487;53.320;8.672;2023-04-09T11:54:04;102382.88;;;11.54;50.24
20656;BME280;10487;53.320;8.672;2023-04-09T11:57:06;102379.16;;;11.74;50.01
20656;BME280;10487;53.320;8.672;2023-04-09T12:03:12;102382.03;;;11.87;49.69
20656;BME280;10487;53.320;8.672;2023-04-09T12:06:19;102378.41;;;11.88;49.87
20656;BME280;10487;53.320;8.672;2023-04-09T12:09:22;102377.31;;;11.92;50.06
20656;BME280;10487;53.320;8.672;2023-04-09T12:12:23;102381.66;;;12.10;49.74
20656;BME280;10487;53.320;8.672;2023-04-09T12:15:30;102379.34;;;12.19;49.41
20656;BME280;10487;53.320;8.672;2023-04-09T12:18:35;102381.84;;;12.22;49.36
20656;BME280;10487;53.320;8.672;2023-04-09T12:21:51;102376.44;;;12.24;49.80
20656;BME280;10487;53.320;8.672;2023-04-09T12:24:55;102376.44;;;12.24;49.29
20656;BME280;10487;53.320;8.672;2023-04-09T12:27:57;102376.59;;;12.21;49.42
20656;BME280;10487;53.320;8.672;2023-04-09T12:30:59;102373.81;;;12.22;49.44
20656;BME280;10487;53.320;8.672;2023-04-09T12:34:00;102370.81;;;12.28;49.31
20656;BME280;10487;53.320;8.672;2023-04-09T12:37:02;102364.44;;;12.31;49.40
20656;BME280;10487;53.320;8.672;2023-04-09T12:40:05;102358.97;;;12.32;49.54
20656;BME280;10487;53.320;8.672;2023-04-09T12:43:06;102357.00;;;12.36;49.19
20656;BME280;10487;53.320;8.672;2023-04-09T12:46:09;102354.28;;;12.53;49.37
20656;BME280;10487;53.320;8.672;2023-04-09T12:49:10;102358.22;;;12.62;49.27
20656;BME280;10487;53.320;8.672;2023-04-09T12:52:12;102345.72;;;12.62;48.91
20656;BME280;10487;53.320;8.672;2023-04-09T12:55:13;102356.09;;;12.68;48.87
20656;BME280;10487;53.320;8.672;2023-04-09T12:58:15;102350.63;;;12.70;49.17
20656;BME280;10487;53.320;8.672;2023-04-09T13:01:17;102347.28;;;12.66;48.69
20656;BME280;10487;53.320;8.672;2023-04-09T13:04:19;102341.13;;;12.64;49.06
20656;BME280;10487;53.320;8.672;2023-04-09T13:07:20;102338.97;;;12.71;48.88
20656;BME280;10487;53.320;8.672;2023-04-09T13:10:23;102333.06;;;12.80;48.57
20656;BME280;10487;53.320;8.672;2023-04-09T13:13:24;102325.94;;;12.94;48.70
20656;BME280;10487;53.320;8.672;2023-04-09T13:16:26;102318.91;;;13.07;48.78
20656;BME280;10487;53.320;8.672;2023-04-09T13:19:28;102327.72;;;13.09;48.60
20656;BME280;10487;53.320;8.672;2023-04-09T13:22:30;102326.47;;;13.01;48.52
20656;BME280;10487;53.320;8.672;2023-04-09T13:25:31;102328.72;;;12.93;48.76
20656;BME280;10487;53.320;8.672;2023-04-09T13:28:33;102327.88;;;12.92;48.69
20656;BME280;10487;53.320;8.672;2023-04-09T13:31:35;102323.38;;;12.93;48.42
20656;BME280;10487;53.320;8.672;2023-04-09T13:34:37;102315.16;;;12.96;48.61
20656;BME280;10487;53.320;8.672;2023-04-09T13:37:39;102309.69;;;12.97;48.38
20656;BME280;10487;53.320;8.672;2023-04-09T13:40:41;102311.16;;;13.03;48.50
20656;BME280;10487;53.320;8.672;2023-04-09T13:43:42;102317.09;;;13.08;48.29
20656;BME280;10487;53.320;8.672;2023-04-09T13:46:45;102309.84;;;13.10;47.92
20656;BME280;10487;53.320;8.672;2023-04-09T13:49:47;102311.28;;;13.16;48.02
20656;BME280;10487;53.320;8.672;2023-04-09T13:52:48;102304.44;;;13.26;47.89
20656;BME280;10487;53.320;8.672;2023-04-09T13:55:50;102304.91;;;13.32;48.09
20656;BME280;10487;53.320;8.672;2023-04-09T13:58:51;102297.03;;;13.29;47.94
20656;BME280;10487;53.320;8.672;2023-04-09T14:01:53;102299.13;;;13.24;47.76
20656;BME280;10487;53.320;8.672;2023-04-09T14:04:55;102297.59;;;13.20;47.68
20656;BME280;10487;53.320;8.672;2023-04-09T14:07:57;102288.13;;;13.15;47.80
20656;BME280;10487;53.320;8.672;2023-04-09T14:10:59;102299.19;;;13.08;47.73
20656;BME280;10487;53.320;8.672;2023-04-09T14:14:01;102283.38;;;13.04;47.71
20656;BME280;10487;53.320;8.672;2023-04-09T14:17:02;102289.63;;;13.04;47.92
20656;BME280;10487;53.320;8.672;2023-04-09T14:20:04;102277.84;;;13.07;47.56
20656;BME280;10487;53.320;8.672;2023-04-09T14:23:06;102274.81;;;13.13;47.87
20656;BME280;10487;53.320;8.672;2023-04-09T14:26:08;102265.44;;;13.20;47.69
20656;BME280;10487;53.320;8.672;2023-04-09T14:29:10;102264.22;;;13.26;47.52
20656;BME280;10487;53.320;8.672;2023-04-09T14:32:11;102267.25;;;13.34;47.66
20656;BME280;10487;53.320;8.672;2023-04-09T14:35:13;102271.50;;;13.38;47.64
20656;BME280;10487;53.320;8.672;2023-04-09T14:38:15;102268.13;;;13.34;47.18
20656;BME280;10487;53.320;8.672;2023-04-09T14:41:16;102262.47;;;13.25;47.06
20656;BME280;10487;53.320;8.672;2023-04-09T14:44:18;102264.00;;;13.15;47.53
20656;BME280;10487;53.320;8.672;2023-04-09T14:47:20;102262.53;;;13.09;47.53
20656;BME280;10487;53.320;8.672;2023-04-09T14:50:21;102264.47;;;13.07;47.23
20656;BME280;10487;53.320;8.672;2023-04-09T14:53:23;102264.75;;;13.02;47.22
20656;BME280;10487;53.320;8.672;2023-04-09T14:56:24;102258.69;;;12.99;47.40
20656;BME280;10487;53.320;8.672;2023-04-09T14:59:26;102255.16;;;12.98;47.40
20656;BME280;10487;53.320;8.672;2023-04-09T15:02:28;102253.16;;;13.02;47.56
20656;BME280;10487;53.320;8.672;2023-04-09T15:05:30;102244.75;;;13.08;47.19
20656;BME280;10487;53.320;8.672;2023-04-09T15:08:31;102240.63;;;13.17;47.37
20656;BME280;10487;53.320;8.672;2023-04-09T15:11:33;102238.25;;;13.26;47.34
20656;BME280;10487;53.320;8.672;2023-04-09T15:14:34;102231.56;;;13.33;47.02
20656;BME280;10487;53.320;8.672;2023-04-09T15:17:36;102237.31;;;13.27;46.74
20656;BME280;10487;53.320;8.672;2023-04-09T15:20:39;102237.88;;;13.18;46.68
20656;BME280;10487;53.320;8.672;2023-04-09T15:23:40;102238.34;;;13.10;46.84
20656;BME280;10487;53.320;8.672;2023-04-09T15:26:42;102244.06;;;13.04;46.76
20656;BME280;10487;53.320;8.672;2023-04-09T15:29:44;102243.66;;;12.96;47.12
20656;BME280;10487;53.320;8.672;2023-04-09T15:32:45;102256.47;;;12.91;47.08
20656;BME280;10487;53.320;8.672;2023-04-09T15:35:47;102251.69;;;12.96;47.06
20656;BME280;10487;53.320;8.672;2023-04-09T15:38:52;102247.72;;;13.03;46.73
20656;BME280;10487;53.320;8.672;2023-04-09T15:41:54;102234.09;;;13.06;46.71
20656;BME280;10487;53.320;8.672;2023-04-09T15:44:59;102239.41;;;13.08;46.86
20656;BME280;10487;53.320;8.672;2023-04-09T15:48:00;102232.19;;;13.08;46.84
20656;BME280;10487;53.320;8.672;2023-04-09T15:51:03;102238.34;;;13.10;46.79
20656;BME280;10487;53.320;8.672;2023-04-09T15:54:05;102232.19;;;13.08;46.73
20656;BME280;10487;53.320;8.672;2023-04-09T15:57:06;102233.34;;;13.04;46.76
20656;BME280;10487;53.320;8.672;2023-04-09T16:00:08;102239.00;;;13.00;46.53
20656;BME280;10487;53.320;8.672;2023-04-09T16:03:11;102235.84;;;12.93;46.64
20656;BME280;10487;53.320;8.672;2023-04-09T16:06:13;102235.91;;;12.92;46.95
20656;BME280;10487;53.320;8.672;2023-04-09T16:09:14;102229.31;;;12.97;46.90
20656;BME280;10487;53.320;8.672;2023-04-09T16:12:16;102224.44;;;13.04;46.45